Time;durP1;ratioP1;P1;durP2;ratioP2;P2;SDS_P1;SDS_P2;PMS_P1;PMS_P2;Temp;Humidity;BMP_temperature;BMP_pressure;BME280_temperature;BME280_humidity;BME280_pressure;Samples;Min_cycle;Max_cycle;Signal;HPM_P1;HPM_P2
2024/04/19 00:01:52;;;;;;;;;;;;;;;21.78;37.47;100252.90;102950;1294;63530;-79
2024/04/19 00:04:18;;;;;;;;;;;;;;;21.78;37.50;100256.84;102884;1289;63390;-80
2024/04/19 00:06:43;;;;;;;;;;;;;;;21.78;37.38;100262.76;103018;1289;62118;-80
2024/04/19 00:09:09;;;;;;;;;;;;;;;21.77;37.45;100257.24;103087;1289;62184;-78
2024/04/19 00:11:34;;;;;;;;;;;;;;;21.77;37.29;100254.92;103024;1289;63263;-80
2024/04/19 00:14:01;;;;;;;;;;;;;;;21.76;37.39;100256.74;103033;1289;62179;-78
2024/04/19 00:16:26;;;;;;;;;;;;;;;21.77;37.44;100262.64;103111;1294;63395;-81
2024/04/19 00:18:52;;;;;;;;;;;;;;;21.77;37.30;100258.88;103168;1289;62194;-79
2024/04/19 00:21:17;;;;;;;;;;;;;;;21.77;37.38;100267.30;103103;1289;62133;-78
2024/04/19 00:23:43;;;;;;;;;;;;;;;21.76;37.33;100269.64;103159;1293;62191;-79
2024/04/19 00:26:08;;;;;;;;;;;;;;;21.76;37.38;100267.69;103026;1289;62184;-79
2024/04/19 00:28:37;;;;;;;;;;;;;;;21.76;37.37;100268.42;103057;1291;62287;-79
2024/04/19 00:31:03;;;;;;;;;;;;;;;21.76;37.27;100271.52;103082;1290;62905;-79
2024/04/19 00:33:29;;;;;;;;;;;;;;;21.75;37.25;100270.99;103061;1289;62190;-78
2024/04/19 00:35:55;;;;;;;;;;;;;;;21.76;37.40;100267.75;102948;1289;62188;-80
2024/04/19 00:38:20;;;;;;;;;;;;;;;21.75;37.35;100269.41;103080;1291;63364;-81
2024/04/19 00:40:46;;;;;;;;;;;;;;;21.75;37.30;100273.88;103141;1289;62217;-80
2024/04/19 00:43:12;;;;;;;;;;;;;;;21.75;37.33;100275.69;103037;1293;62198;-78
2024/04/19 00:45:38;;;;;;;;;;;;;;;21.75;37.37;100276.05;102841;1294;63364;-81
2024/04/19 00:48:24;;;;;;;;;;;;;;;21.75;37.36;100275.88;103111;1292;62284;-79
2024/04/19 00:50:50;;;;;;;;;;;;;;;21.75;37.40;100275.89;102553;1295;62169;-80
2024/04/19 00:53:16;;;;;;;;;;;;;;;21.75;37.32;100279.30;102566;1295;62198;-79
2024/04/19 00:55:42;;;;;;;;;;;;;;;21.74;37.38;100279.86;102377;1295;62200;-78
2024/04/19 00:58:08;;;;;;;;;;;;;;;21.74;37.46;100278.41;102556;1300;62421;-78
2024/04/19 01:00:33;;;;;;;;;;;;;;;21.74;37.31;100286.14;102436;1295;63202;-79
2024/04/19 01:02:59;;;;;;;;;;;;;;;21.74;37.31;100289.92;102571;1295;63524;-80
2024/04/19 01:05:24;;;;;;;;;;;;;;;21.73;37.33;100294.08;102602;1295;62374;-79
2024/04/19 01:07:50;;;;;;;;;;;;;;;21.74;37.32;100297.27;102575;1298;72402;-79
2024/04/19 01:10:16;;;;;;;;;;;;;;;21.73;37.30;100305.20;102339;1295;63429;-79
2024/04/19 01:12:42;;;;;;;;;;;;;;;21.74;37.30;100307.84;102647;1298;62130;-79
2024/04/19 01:15:17;;;;;;;;;;;;;;;21.73;37.31;100308.05;102533;1295;62347;-79
2024/04/19 01:17:43;;;;;;;;;;;;;;;21.73;37.23;100309.86;102547;1299;72528;-79
2024/04/19 01:20:08;;;;;;;;;;;;;;;21.73;37.28;100309.71;102556;1295;62285;-79
2024/04/19 01:22:34;;;;;;;;;;;;;;;21.72;37.31;100309.37;102375;1295;63020;-78
2024/04/19 01:25:00;;;;;;;;;;;;;;;21.72;37.38;100308.31;102538;1295;62214;-80
2024/04/19 01:27:26;;;;;;;;;;;;;;;21.72;37.21;100309.03;102350;1295;62210;-80
2024/04/19 01:29:52;;;;;;;;;;;;;;;21.72;37.27;100314.23;103141;1289;62222;-79
2024/04/19 01:32:17;;;;;;;;;;;;;;;21.72;37.13;100319.63;103037;1289;75298;-81
2024/04/19 01:34:43;;;;;;;;;;;;;;;21.72;37.20;100318.56;103081;1291;63129;-79
2024/04/19 01:37:09;;;;;;;;;;;;;;;21.72;37.24;100317.70;103115;1288;62190;-79
2024/04/19 01:39:35;;;;;;;;;;;;;;;21.71;37.25;100319.17;103042;1289;62194;-79
2024/04/19 01:42:01;;;;;;;;;;;;;;;21.71;37.23;100322.23;103186;1289;62552;-79
2024/04/19 01:44:26;;;;;;;;;;;;;;;21.71;37.19;100326.67;103166;1289;62185;-79
2024/04/19 01:46:52;;;;;;;;;;;;;;;21.70;37.17;100326.92;102889;1292;62272;-79
2024/04/19 01:49:18;;;;;;;;;;;;;;;21.71;37.22;100327.44;102689;1291;62108;-79
2024/04/19 01:51:43;;;;;;;;;;;;;;;21.71;37.29;100332.08;102670;1297;62266;-78
2024/04/19 01:54:09;;;;;;;;;;;;;;;21.70;37.16;100334.09;102761;1292;62359;-79
2024/04/19 01:56:34;;;;;;;;;;;;;;;21.70;37.29;100344.46;102836;1294;62383;-79
2024/04/19 01:59:00;;;;;;;;;;;;;;;21.70;37.13;100352.73;102879;1292;62279;-79
2024/04/19 02:01:26;;;;;;;;;;;;;;;21.70;37.16;100355.60;102856;1292;63227;-79
2024/04/19 02:03:52;;;;;;;;;;;;;;;21.70;37.17;100356.33;102766;1292;62191;-78
2024/04/19 02:06:17;;;;;;;;;;;;;;;21.70;37.14;100356.88;102742;1297;62261;-79
2024/04/19 02:08:43;;;;;;;;;;;;;;;21.70;37.23;100356.69;102903;1292;62309;-80
2024/04/19 02:11:08;;;;;;;;;;;;;;;21.69;37.16;100353.67;102876;1292;63341;-78
2024/04/19 02:13:34;;;;;;;;;;;;;;;21.69;37.25;100356.17;102807;1292;62360;-79
2024/04/19 02:16:00;;;;;;;;;;;;;;;21.69;37.18;100356.55;102761;1297;62207;-80
2024/04/19 02:18:25;;;;;;;;;;;;;;;21.69;37.19;100359.44;102849;1289;62321;-79
2024/04/19 02:20:51;;;;;;;;;;;;;;;21.69;37.18;100361.25;103001;1289;62132;-78
2024/04/19 02:23:38;;;;;;;;;;;;;;;21.69;37.21;100364.67;103051;1289;62158;-78
2024/04/19 02:26:04;;;;;;;;;;;;;;;21.68;37.20;100359.31;102372;1289;1042924;-79
2024/04/19 02:31:16;;;;;;;;;;;;;;;21.68;37.18;100362.23;103009;1289;62140;-79
2024/04/19 02:33:41;;;;;;;;;;;;;;;21.68;37.23;100362.39;102830;1289;62267;-78
2024/04/19 02:36:09;;;;;;;;;;;;;;;21.68;37.16;100365.27;102995;1289;62211;-78
2024/04/19 02:38:36;;;;;;;;;;;;;;;21.68;37.16;100368.33;103008;1294;62207;-80
2024/04/19 02:41:01;;;;;;;;;;;;;;;21.67;37.07;100366.73;103041;1289;62143;-80
2024/04/19 02:43:27;;;;;;;;;;;;;;;21.68;37.11;100369.79;103064;1289;63364;-79
2024/04/19 02:45:53;;;;;;;;;;;;;;;21.67;37.10;100372.13;103040;1289;62197;-79
2024/04/19 02:48:19;;;;;;;;;;;;;;;21.67;37.13;100372.15;103010;1289;62277;-79
2024/04/19 02:50:47;;;;;;;;;;;;;;;21.67;37.16;100372.34;102917;1289;62262;-78
2024/04/19 02:53:13;;;;;;;;;;;;;;;21.67;37.19;100376.50;103030;1294;62112;-79
2024/04/19 02:55:39;;;;;;;;;;;;;;;21.66;37.16;100378.11;103041;1289;63500;-80
2024/04/19 02:58:04;;;;;;;;;;;;;;;21.66;37.12;100377.96;102824;1289;63508;-79
2024/04/19 03:00:30;;;;;;;;;;;;;;;21.67;37.19;100379.71;103149;1289;62892;-81
2024/04/19 03:02:55;;;;;;;;;;;;;;;21.66;37.10;100376.71;103034;1292;62188;-78
2024/04/19 03:05:21;;;;;;;;;;;;;;;21.67;37.11;100384.38;103154;1289;62229;-79
2024/04/19 03:07:46;;;;;;;;;;;;;;;21.66;37.17;100386.41;103148;1289;62494;-79
2024/04/19 03:10:12;;;;;;;;;;;;;;;21.66;37.13;100389.83;102984;1293;62207;-78
2024/04/19 03:12:37;;;;;;;;;;;;;;;21.65;37.14;100396.46;102999;1289;62235;-80
2024/04/19 03:15:03;;;;;;;;;;;;;;;21.65;37.16;100399.39;103122;1289;62194;-78
2024/04/19 03:17:29;;;;;;;;;;;;;;;21.65;37.12;100407.92;103203;1289;62201;-79
2024/04/19 03:19:54;;;;;;;;;;;;;;;21.65;37.08;100413.71;103024;1289;62202;-78
2024/04/19 03:22:20;;;;;;;;;;;;;;;21.65;37.10;100419.96;103165;1293;62167;-79
2024/04/19 03:24:45;;;;;;;;;;;;;;;21.65;37.13;100421.44;103129;1289;62239;-79
2024/04/19 03:27:11;;;;;;;;;;;;;;;21.65;37.04;100420.73;103157;1289;62188;-79
2024/04/19 03:29:36;;;;;;;;;;;;;;;21.64;36.97;100424.70;103089;1289;62206;-78
2024/04/19 03:32:02;;;;;;;;;;;;;;;21.64;37.12;100427.58;103177;1289;62207;-78
2024/04/19 03:34:28;;;;;;;;;;;;;;;21.64;37.17;100435.28;102858;1289;62190;-79
2024/04/19 03:36:53;;;;;;;;;;;;;;;21.64;36.96;100441.17;103044;1294;62233;-78
2024/04/19 03:39:19;;;;;;;;;;;;;;;21.64;37.13;100446.41;102900;1291;62203;-79
2024/04/19 03:41:46;;;;;;;;;;;;;;;21.64;37.05;100445.29;103027;1289;63182;-78
2024/04/19 03:46:57;;;;;;;;;;;;;;;21.64;37.18;100446.38;103001;1289;75298;-79
2024/04/19 03:49:23;;;;;;;;;;;;;;;21.63;37.00;100451.60;103222;1289;63371;-79
2024/04/19 03:51:49;;;;;;;;;;;;;;;21.62;37.04;100448.28;103084;1289;62163;-81
2024/04/19 03:54:14;;;;;;;;;;;;;;;21.62;36.91;100451.39;102897;1294;62276;-78
2024/04/19 03:56:40;;;;;;;;;;;;;;;21.61;37.04;100455.52;103067;1289;63378;-79
2024/04/19 03:59:06;;;;;;;;;;;;;;;21.60;36.96;100458.23;102888;1289;62281;-81
2024/04/19 04:01:31;;;;;;;;;;;;;;;21.60;36.88;100468.52;103114;1289;63176;-79
2024/04/19 04:03:57;;;;;;;;;;;;;;;21.59;36.99;100470.16;103029;1294;62254;-78
2024/04/19 04:06:23;;;;;;;;;;;;;;;21.59;36.93;100471.45;102996;1289;62094;-79
2024/04/19 04:08:49;;;;;;;;;;;;;;;21.59;36.84;100482.76;103183;1289;62646;-79
2024/04/19 04:11:14;;;;;;;;;;;;;;;21.58;36.85;100487.84;103009;1289;62194;-80
2024/04/19 04:13:40;;;;;;;;;;;;;;;21.57;36.79;100486.67;103131;1289;62334;-81
2024/04/19 04:16:06;;;;;;;;;;;;;;;21.55;36.71;100495.02;103194;1289;62271;-80
2024/04/19 04:18:32;;;;;;;;;;;;;;;21.53;36.78;100495.53;103044;1295;62197;-81
2024/04/19 04:20:57;;;;;;;;;;;;;;;21.52;36.84;100495.11;102969;1289;62193;-81
2024/04/19 04:23:23;;;;;;;;;;;;;;;21.50;36.65;100496.82;103131;1289;62618;-79
2024/04/19 04:25:49;;;;;;;;;;;;;;;21.48;36.75;100502.71;103171;1289;62199;-79
2024/04/19 04:28:15;;;;;;;;;;;;;;;21.46;36.67;100508.64;102977;1294;62130;-79
2024/04/19 04:30:41;;;;;;;;;;;;;;;21.42;36.68;100511.05;103045;1289;63321;-81
2024/04/19 04:33:07;;;;;;;;;;;;;;;21.38;36.68;100516.36;103184;1289;62699;-82
2024/04/19 04:35:34;;;;;;;;;;;;;;;21.35;36.60;100516.82;103241;1292;63347;-79
2024/04/19 04:37:59;;;;;;;;;;;;;;;21.32;36.57;100519.55;103013;1289;63703;-81
2024/04/19 04:40:25;;;;;;;;;;;;;;;21.29;36.52;100520.69;103136;1289;63279;-80
2024/04/19 04:42:51;;;;;;;;;;;;;;;21.26;36.48;100525.53;102998;1294;63773;-80
2024/04/19 04:45:17;;;;;;;;;;;;;;;21.24;36.31;100528.19;103389;1289;62273;-81
2024/04/19 04:47:43;;;;;;;;;;;;;;;21.22;36.35;100522.27;103299;1289;62196;-77
2024/04/19 04:50:08;;;;;;;;;;;;;;;21.19;36.40;100523.34;103702;1291;62179;-79
2024/04/19 04:52:34;;;;;;;;;;;;;;;21.17;36.38;100522.77;103983;1289;72337;-79
2024/04/19 04:54:59;;;;;;;;;;;;;;;21.16;36.32;100522.04;103847;1289;62180;-78
2024/04/19 04:57:25;;;;;;;;;;;;;;;21.14;36.23;100526.48;104010;1289;62222;-80
2024/04/19 04:59:50;;;;;;;;;;;;;;;21.11;36.19;100527.02;104346;1289;60983;-81
2024/04/19 05:02:16;;;;;;;;;;;;;;;21.10;36.32;100531.90;104771;1294;62402;-79
2024/04/19 05:04:50;;;;;;;;;;;;;;;21.09;36.24;100539.33;104484;1289;73557;-80
2024/04/19 05:07:16;;;;;;;;;;;;;;;21.09;36.12;100537.92;104905;1289;75140;-81
2024/04/19 05:09:41;;;;;;;;;;;;;;;21.08;36.13;100537.42;104546;1289;62174;-79
2024/04/19 05:12:08;;;;;;;;;;;;;;;21.08;36.19;100544.58;104377;1289;62207;-79
2024/04/19 05:14:33;;;;;;;;;;;;;;;21.08;36.08;100543.33;104866;1289;62180;-81
2024/04/19 05:16:59;;;;;;;;;;;;;;;21.06;36.00;100543.80;104962;1289;62080;-78
2024/04/19 05:19:24;;;;;;;;;;;;;;;21.05;35.96;100541.06;104679;1289;62176;-78
2024/04/19 05:21:50;;;;;;;;;;;;;;;21.04;35.88;100541.84;104560;1289;62127;-77
2024/04/19 05:24:15;;;;;;;;;;;;;;;21.04;35.93;100542.24;104488;1289;62226;-78
2024/04/19 05:26:41;;;;;;;;;;;;;;;21.03;35.85;100545.65;104552;1289;59980;-78
2024/04/19 05:29:07;;;;;;;;;;;;;;;21.02;35.81;100550.57;104288;1289;62208;-79
2024/04/19 05:31:32;;;;;;;;;;;;;;;21.01;35.66;100553.87;104447;1289;62178;-78
2024/04/19 05:33:58;;;;;;;;;;;;;;;21.01;35.64;100555.13;104892;1289;59916;-80
2024/04/19 05:36:23;;;;;;;;;;;;;;;20.99;35.65;100558.15;104746;1289;60606;-79
2024/04/19 05:38:49;;;;;;;;;;;;;;;20.98;35.80;100561.08;104626;1294;59999;-81
2024/04/19 05:41:17;;;;;;;;;;;;;;;20.99;35.81;100564.77;104875;1288;75420;-79
2024/04/19 05:43:45;;;;;;;;;;;;;;;21.00;35.68;100570.99;104763;1289;62107;-79
2024/04/19 05:46:11;;;;;;;;;;;;;;;20.98;35.69;100570.59;105001;1289;62159;-81
2024/04/19 05:48:36;;;;;;;;;;;;;;;20.96;35.61;100570.92;104214;1291;59524;-78
2024/04/19 05:51:02;;;;;;;;;;;;;;;20.97;35.78;100572.47;104898;1289;62194;-80
2024/04/19 05:53:27;;;;;;;;;;;;;;;20.97;35.71;100570.85;104932;1289;59715;-82
2024/04/19 05:55:53;;;;;;;;;;;;;;;20.89;35.51;100570.86;105278;1289;62216;-78
2024/04/19 05:58:21;;;;;;;;;;;;;;;20.82;35.35;100573.02;104942;1289;62208;-79
2024/04/19 06:00:47;;;;;;;;;;;;;;;20.66;35.22;100576.68;105247;1288;72663;-78
2024/04/19 06:03:13;;;;;;;;;;;;;;;20.63;35.44;100579.20;105168;1291;62107;-78
2024/04/19 06:05:38;;;;;;;;;;;;;;;20.64;35.38;100584.50;104752;1289;62178;-78
2024/04/19 06:08:04;;;;;;;;;;;;;;;20.68;35.63;100587.08;104864;1289;62119;-79
2024/04/19 06:10:30;;;;;;;;;;;;;;;20.74;35.97;100587.52;105149;1289;62081;-79
2024/04/19 06:12:55;;;;;;;;;;;;;;;20.80;36.00;100591.61;105088;1289;59983;-80
2024/04/19 06:15:21;;;;;;;;;;;;;;;20.85;35.79;100596.91;105117;1289;75628;-80
2024/04/19 06:17:46;;;;;;;;;;;;;;;20.88;35.82;100599.23;105280;1289;62285;-78
2024/04/19 06:20:12;;;;;;;;;;;;;;;20.87;35.63;100607.31;105238;1289;59896;-78
2024/04/19 06:22:38;;;;;;;;;;;;;;;20.90;35.56;100611.61;105059;1289;62358;-79
2024/04/19 06:25:04;;;;;;;;;;;;;;;20.91;35.40;100617.06;105146;1289;62194;-79
2024/04/19 06:27:30;;;;;;;;;;;;;;;20.89;35.32;100617.40;104887;1289;62053;-80
2024/04/19 06:29:55;;;;;;;;;;;;;;;20.83;35.09;100609.76;104481;1289;59952;-79
2024/04/19 06:32:21;;;;;;;;;;;;;;;20.80;35.10;100614.67;104780;1289;62104;-80
2024/04/19 06:34:50;;;;;;;;;;;;;;;20.81;35.25;100614.94;104300;1294;62186;-78
2024/04/19 06:37:15;;;;;;;;;;;;;;;20.84;35.10;100618.13;104410;1289;75244;-79
2024/04/19 06:39:41;;;;;;;;;;;;;;;20.86;35.13;100619.77;104497;1289;62098;-79
2024/04/19 06:42:06;;;;;;;;;;;;;;;20.85;35.03;100618.71;104317;1289;62247;-78
2024/04/19 06:44:32;;;;;;;;;;;;;;;20.82;35.03;100614.98;104688;1288;62143;-80
2024/04/19 06:46:57;;;;;;;;;;;;;;;20.84;34.91;100619.19;104571;1289;62142;-80
2024/04/19 06:49:23;;;;;;;;;;;;;;;20.85;35.05;100621.64;104198;1293;75562;-79
2024/04/19 06:51:49;;;;;;;;;;;;;;;20.83;34.99;100624.79;104742;1289;62245;-78
2024/04/19 06:54:15;;;;;;;;;;;;;;;20.69;34.80;100622.21;104480;1289;62646;-78
2024/04/19 06:56:40;;;;;;;;;;;;;;;20.53;34.87;100627.29;104910;1291;61016;-78
2024/04/19 06:59:07;;;;;;;;;;;;;;;20.36;34.82;100635.12;105214;1289;62127;-80
2024/04/19 07:01:33;;;;;;;;;;;;;;;20.13;34.96;100634.17;105009;1289;62127;-80
2024/04/19 07:03:58;;;;;;;;;;;;;;;20.06;35.14;100641.80;104954;1294;62110;-78
2024/04/19 07:06:24;;;;;;;;;;;;;;;20.05;35.07;100646.16;105002;1289;60600;-80
2024/04/19 07:08:49;;;;;;;;;;;;;;;20.11;35.32;100655.59;104684;1292;63613;-79
2024/04/19 07:11:15;;;;;;;;;;;;;;;20.18;35.21;100654.08;104673;1289;59849;-78
2024/04/19 07:13:49;;;;;;;;;;;;;;;20.20;35.18;100656.26;105020;1289;62193;-78
2024/04/19 07:16:15;;;;;;;;;;;;;;;20.26;35.33;100664.05;104821;1289;62188;-78
2024/04/19 07:18:40;;;;;;;;;;;;;;;20.31;35.23;100668.14;104523;1289;62141;-77
2024/04/19 07:21:06;;;;;;;;;;;;;;;20.33;35.21;100669.44;104529;1291;62184;-78
2024/04/19 07:23:31;;;;;;;;;;;;;;;20.33;35.07;100666.79;104568;1289;62136;-77
2024/04/19 07:25:57;;;;;;;;;;;;;;;20.36;35.33;100667.63;104976;1289;60071;-78
2024/04/19 07:28:22;;;;;;;;;;;;;;;20.42;35.19;100665.75;105064;1289;62107;-78
2024/04/19 07:30:49;;;;;;;;;;;;;;;20.47;35.23;100664.86;104892;1289;62117;-78
2024/04/19 07:33:14;;;;;;;;;;;;;;;20.51;35.33;100665.90;105105;1289;62069;-79
2024/04/19 07:35:39;;;;;;;;;;;;;;;20.51;35.12;100669.95;104853;1289;63188;-77
2024/04/19 07:38:05;;;;;;;;;;;;;;;20.48;35.09;100667.67;104654;1289;62191;-78
2024/04/19 07:40:34;;;;;;;;;;;;;;;20.45;35.01;100673.61;104592;1289;62065;-78
2024/04/19 07:42:59;;;;;;;;;;;;;;;20.39;34.98;100668.98;104717;1289;72556;-78
2024/04/19 07:45:25;;;;;;;;;;;;;;;20.32;35.03;100672.55;104516;1289;62069;-78
2024/04/19 07:47:51;;;;;;;;;;;;;;;20.34;35.09;100668.83;104856;1289;62060;-78
2024/04/19 07:50:16;;;;;;;;;;;;;;;20.37;35.07;100665.40;104877;1289;62108;-82
2024/04/19 07:52:42;;;;;;;;;;;;;;;20.39;35.31;100666.67;104261;1289;59969;-78
2024/04/19 07:55:08;;;;;;;;;;;;;;;20.37;35.08;100664.89;104546;1289;62203;-78
2024/04/19 07:57:33;;;;;;;;;;;;;;;20.31;35.21;100662.98;104247;1291;75330;-78
2024/04/19 08:00:00;;;;;;;;;;;;;;;20.28;35.18;100663.35;104346;1291;59862;-78
2024/04/19 08:02:26;;;;;;;;;;;;;;;20.20;35.11;100662.65;104626;1292;62230;-80
2024/04/19 08:04:51;;;;;;;;;;;;;;;20.13;35.05;100665.30;104467;1295;62065;-80
2024/04/19 08:07:17;;;;;;;;;;;;;;;20.03;34.85;100661.35;104565;1291;62190;-79
2024/04/19 08:09:42;;;;;;;;;;;;;;;20.04;35.11;100663.39;104396;1292;60931;-80
2024/04/19 08:12:08;;;;;;;;;;;;;;;20.09;35.04;100662.70;104429;1292;59947;-81
2024/04/19 08:14:34;;;;;;;;;;;;;;;20.13;35.10;100659.94;104653;1294;62217;-78
2024/04/19 08:17:00;;;;;;;;;;;;;;;20.12;35.13;100659.66;104111;1292;62170;-79
2024/04/19 08:19:28;;;;;;;;;;;;;;;20.15;35.11;100661.94;104349;1292;75091;-80
2024/04/19 08:21:54;;;;;;;;;;;;;;;20.19;34.94;100663.77;104269;1292;62181;-80
2024/04/19 08:24:20;;;;;;;;;;;;;;;20.12;34.86;100661.42;104044;1292;62402;-80
2024/04/19 08:26:45;;;;;;;;;;;;;;;20.05;34.94;100663.15;104207;1291;62119;-79
2024/04/19 08:29:11;;;;;;;;;;;;;;;19.93;35.08;100665.42;104474;1289;62255;-80
2024/04/19 08:31:37;;;;;;;;;;;;;;;19.94;35.11;100663.38;104322;1289;62279;-78
2024/04/19 08:34:03;;;;;;;;;;;;;;;19.98;35.13;100662.19;104259;1289;62090;-78
2024/04/19 08:36:28;;;;;;;;;;;;;;;20.00;35.10;100664.80;104501;1289;62058;-79
2024/04/19 08:38:54;;;;;;;;;;;;;;;19.99;35.18;100667.17;105004;1289;62104;-80
2024/04/19 08:41:19;;;;;;;;;;;;;;;20.00;35.26;100660.84;104758;1289;60078;-78
2024/04/19 08:43:45;;;;;;;;;;;;;;;20.01;35.14;100662.02;104655;1289;59910;-78
2024/04/19 08:46:11;;;;;;;;;;;;;;;19.92;35.20;100656.56;104446;1289;62198;-80
2024/04/19 08:48:37;;;;;;;;;;;;;;;19.95;35.21;100653.85;104308;1289;62197;-78
2024/04/19 08:51:02;;;;;;;;;;;;;;;19.93;35.09;100650.95;104421;1289;62114;-79
2024/04/19 08:53:29;;;;;;;;;;;;;;;19.93;35.14;100649.69;104501;1291;59834;-83
2024/04/19 08:55:54;;;;;;;;;;;;;;;19.87;35.13;100648.64;104786;1289;62108;-81
2024/04/19 08:58:20;;;;;;;;;;;;;;;19.89;35.24;100645.89;104808;1289;59855;-80
2024/04/19 09:00:45;;;;;;;;;;;;;;;19.88;35.37;100646.64;104936;1289;62212;-81
2024/04/19 09:03:11;;;;;;;;;;;;;;;19.85;35.32;100645.79;104929;1289;60893;-80
2024/04/19 09:05:36;;;;;;;;;;;;;;;19.84;35.28;100644.59;105066;1289;62081;-80
2024/04/19 09:08:02;;;;;;;;;;;;;;;19.84;35.29;100647.61;105187;1289;59878;-82
2024/04/19 09:10:28;;;;;;;;;;;;;;;19.81;35.13;100646.20;105088;1289;59997;-78
2024/04/19 09:12:53;;;;;;;;;;;;;;;19.79;35.31;100642.55;105124;1293;59907;-81
2024/04/19 09:15:19;;;;;;;;;;;;;;;19.81;35.46;100643.00;105086;1289;72438;-80
2024/04/19 09:17:48;;;;;;;;;;;;;;;19.87;35.33;100646.36;104767;1289;62065;-80
2024/04/19 09:20:13;;;;;;;;;;;;;;;19.85;35.36;100641.64;104842;1289;62196;-80
2024/04/19 09:22:39;;;;;;;;;;;;;;;19.85;35.50;100643.77;104925;1291;62107;-79
2024/04/19 09:25:05;;;;;;;;;;;;;;;19.92;35.31;100642.39;105277;1289;62070;-79
2024/04/19 09:27:31;;;;;;;;;;;;;;;19.92;35.32;100641.92;104930;1289;61964;-79
2024/04/19 09:29:57;;;;;;;;;;;;;;;19.98;35.30;100646.48;104615;1289;62276;-78
2024/04/19 09:32:23;;;;;;;;;;;;;;;20.00;35.32;100639.19;104593;1289;59896;-79
2024/04/19 09:34:51;;;;;;;;;;;;;;;19.99;35.42;100633.05;104565;1289;62186;-79
2024/04/19 09:37:18;;;;;;;;;;;;;;;20.02;35.34;100631.40;104711;1288;72398;-79
2024/04/19 09:39:43;;;;;;;;;;;;;;;20.06;35.25;100631.06;104383;1289;63003;-80
2024/04/19 09:42:09;;;;;;;;;;;;;;;20.08;35.27;100633.64;104298;1289;62194;-79
2024/04/19 09:44:36;;;;;;;;;;;;;;;20.12;35.26;100627.63;104632;1289;62181;-78
2024/04/19 09:47:04;;;;;;;;;;;;;;;20.17;35.27;100618.91;104588;1293;60535;-79
2024/04/19 09:49:30;;;;;;;;;;;;;;;20.23;35.25;100618.11;104557;1289;62174;-78
2024/04/19 09:51:57;;;;;;;;;;;;;;;20.25;35.26;100620.30;106007;1289;59822;-79
2024/04/19 09:54:26;;;;;;;;;;;;;;;20.26;35.34;100614.67;105987;1289;59349;-78
2024/04/19 09:56:58;;;;;;;;;;;;;;;20.26;35.32;100615.42;106094;1289;74215;-79
2024/04/19 09:59:26;;;;;;;;;;;;;;;20.19;35.44;100614.48;106107;1289;75090;-79
2024/04/19 10:01:53;;;;;;;;;;;;;;;20.19;35.33;100609.27;106087;1289;60106;-79
2024/04/19 10:04:22;;;;;;;;;;;;;;;20.09;35.37;100612.52;105889;1289;59817;-80
2024/04/19 10:06:48;;;;;;;;;;;;;;;20.05;35.49;100611.73;106063;1289;72548;-79
2024/04/19 10:09:17;;;;;;;;;;;;;;;20.08;35.55;100608.98;106078;1289;59403;-80
2024/04/19 10:11:43;;;;;;;;;;;;;;;20.13;35.48;100606.73;106116;1289;59871;-78
2024/04/19 10:14:09;;;;;;;;;;;;;;;20.21;35.63;100602.73;106010;1289;59814;-79
2024/04/19 10:16:40;;;;;;;;;;;;;;;20.27;35.62;100600.18;106119;1289;60554;-79
2024/04/19 10:19:06;;;;;;;;;;;;;;;20.31;35.78;100595.95;106152;1289;76206;-79
2024/04/19 10:21:36;;;;;;;;;;;;;;;20.34;35.63;100593.08;106064;1289;60528;-81
2024/04/19 10:24:17;;;;;;;;;;;;;;;20.27;35.37;100590.36;105965;1289;60374;-79
2024/04/19 10:26:46;;;;;;;;;;;;;;;20.24;35.60;100584.79;106095;1292;72767;-80
2024/04/19 10:29:15;;;;;;;;;;;;;;;20.25;35.58;100586.83;106013;1289;75182;-80
2024/04/19 10:31:48;;;;;;;;;;;;;;;20.28;35.44;100581.30;106136;1289;60220;-79
2024/04/19 10:34:14;;;;;;;;;;;;;;;20.28;35.56;100581.71;106111;1289;60488;-79
2024/04/19 10:36:39;;;;;;;;;;;;;;;20.33;35.63;100575.63;106162;1289;59313;-78
2024/04/19 10:39:07;;;;;;;;;;;;;;;20.36;35.69;100573.23;105350;1294;60357;-77
2024/04/19 10:41:32;;;;;;;;;;;;;;;20.41;35.49;100569.52;105068;1293;62085;-81
2024/04/19 10:44:01;;;;;;;;;;;;;;;20.45;35.51;100567.27;104911;1294;62114;-79
2024/04/19 10:46:27;;;;;;;;;;;;;;;20.48;35.49;100560.07;105053;1289;61937;-81
2024/04/19 10:48:53;;;;;;;;;;;;;;;20.52;35.35;100561.58;104761;1289;62158;-80
2024/04/19 10:51:20;;;;;;;;;;;;;;;20.53;35.27;100558.81;105101;1289;62249;-79
2024/04/19 10:53:45;;;;;;;;;;;;;;;20.54;35.27;100558.05;104690;1294;62006;-79
2024/04/19 10:56:11;;;;;;;;;;;;;;;20.57;35.27;100555.86;104575;1294;62148;-80
2024/04/19 10:58:36;;;;;;;;;;;;;;;20.59;35.28;100554.77;104580;1289;62192;-80
2024/04/19 11:01:02;;;;;;;;;;;;;;;20.62;35.28;100550.45;104670;1297;62206;-80
2024/04/19 11:03:27;;;;;;;;;;;;;;;20.60;35.11;100550.45;104951;1292;60763;-81
2024/04/19 11:05:53;;;;;;;;;;;;;;;20.51;34.98;100545.90;105028;1289;62074;-78
2024/04/19 11:08:19;;;;;;;;;;;;;;;20.41;34.82;100544.33;105467;1289;62217;-79
2024/04/19 11:10:45;;;;;;;;;;;;;;;20.35;35.01;100545.30;105325;1289;62838;-80
2024/04/19 11:13:11;;;;;;;;;;;;;;;20.33;35.06;100540.98;105336;1289;60923;-80
2024/04/19 11:15:37;;;;;;;;;;;;;;;20.34;34.95;100537.34;104935;1289;59886;-78
2024/04/19 11:18:03;;;;;;;;;;;;;;;20.28;34.83;100536.07;105166;1294;60916;-81
2024/04/19 11:20:29;;;;;;;;;;;;;;;20.21;34.82;100534.63;105904;1289;72469;-80
2024/04/19 11:23:01;;;;;;;;;;;;;;;20.19;34.78;100541.04;105735;1292;60210;-80
2024/04/19 11:25:27;;;;;;;;;;;;;;;20.07;34.71;100539.73;105762;1289;60117;-81
2024/04/19 11:27:53;;;;;;;;;;;;;;;19.91;34.58;100540.32;105908;1289;60047;-80
2024/04/19 11:30:18;;;;;;;;;;;;;;;19.94;34.96;100539.43;105752;1294;59771;-80
2024/04/19 11:32:44;;;;;;;;;;;;;;;19.99;34.98;100538.14;105851;1289;61099;-79
2024/04/19 11:35:10;;;;;;;;;;;;;;;20.03;34.80;100531.98;105919;1292;60281;-80
2024/04/19 11:37:36;;;;;;;;;;;;;;;19.98;34.82;100526.98;105918;1289;59608;-79
2024/04/19 11:40:03;;;;;;;;;;;;;;;20.01;35.00;100525.52;105934;1289;60385;-79
2024/04/19 11:42:28;;;;;;;;;;;;;;;20.08;34.92;100526.08;105959;1292;60244;-79
2024/04/19 11:44:54;;;;;;;;;;;;;;;20.16;35.03;100521.75;105987;1289;60334;-79
2024/04/19 11:47:20;;;;;;;;;;;;;;;20.25;35.00;100514.73;106053;1289;60246;-78
2024/04/19 11:49:46;;;;;;;;;;;;;;;20.33;35.00;100512.66;105924;1289;60313;-80
2024/04/19 11:52:12;;;;;;;;;;;;;;;20.41;35.02;100509.45;106091;1291;60419;-77
2024/04/19 11:54:37;;;;;;;;;;;;;;;20.47;35.15;100510.27;106183;1289;59515;-80
2024/04/19 11:57:03;;;;;;;;;;;;;;;20.52;35.16;100508.67;106128;1289;61173;-80
2024/04/19 11:59:29;;;;;;;;;;;;;;;20.47;34.99;100505.79;106032;1289;60307;-81
2024/04/19 12:01:55;;;;;;;;;;;;;;;20.49;35.30;100503.84;105440;1289;62072;-78
2024/04/19 12:04:22;;;;;;;;;;;;;;;20.53;34.99;100497.48;104749;1293;72520;-78
2024/04/19 12:06:47;;;;;;;;;;;;;;;20.54;34.93;100496.36;104743;1289;62114;-79
2024/04/19 12:09:14;;;;;;;;;;;;;;;20.49;34.85;100493.33;104565;1292;62218;-78
2024/04/19 12:11:41;;;;;;;;;;;;;;;20.40;34.66;100493.27;104950;1293;60377;-79
2024/04/19 12:14:06;;;;;;;;;;;;;;;20.17;34.39;100492.38;104853;1293;62072;-77
2024/04/19 12:16:32;;;;;;;;;;;;;;;20.06;34.59;100490.00;104929;1289;59858;-76
2024/04/19 12:18:57;;;;;;;;;;;;;;;20.05;34.75;100491.29;104759;1289;62198;-77
2024/04/19 12:21:24;;;;;;;;;;;;;;;20.10;34.76;100483.58;104825;1289;62092;-79
2024/04/19 12:23:49;;;;;;;;;;;;;;;20.17;34.88;100481.20;104948;1289;60169;-78
2024/04/19 12:26:16;;;;;;;;;;;;;;;20.23;34.95;100477.52;104639;1292;71704;-77